createdAt,value
2018-11-12T00:02:26.197Z,18.20
2018-11-12T00:05:00.191Z,18.20
2018-11-12T00:07:34.250Z,18.20
2018-11-12T00:10:08.836Z,18.20
2018-11-12T00:12:43.567Z,18.20
2018-11-12T00:15:17.599Z,18.30
2018-11-12T00:17:51.698Z,18.20
2018-11-12T00:20:25.738Z,18.20
2018-11-12T00:22:59.834Z,18.20
2018-11-12T00:25:33.865Z,18.30
2018-11-12T00:28:07.866Z,18.30
2018-11-12T00:30:41.915Z,18.40
2018-11-12T00:33:16.072Z,18.40
2018-11-12T00:35:50.093Z,18.50
2018-11-12T00:38:24.112Z,18.50
2018-11-12T00:40:58.107Z,18.50
2018-11-12T00:43:32.112Z,18.50
2018-11-12T00:46:06.107Z,18.50
2018-11-12T00:48:40.471Z,18.50
2018-11-12T00:51:14.446Z,18.60
2018-11-12T00:53:48.476Z,18.60
2018-11-12T00:56:22.459Z,18.70
2018-11-12T00:58:56.455Z,18.70
2018-11-12T01:01:30.500Z,18.70
2018-11-12T01:04:04.576Z,18.70
2018-11-12T01:06:38.603Z,18.80
2018-11-12T01:09:12.924Z,18.60
2018-11-12T01:11:46.907Z,17.60
2018-11-12T01:14:20.915Z,16.80
2018-11-12T01:16:54.941Z,16.00
2018-11-12T01:19:28.956Z,15.70
2018-11-12T01:22:02.951Z,15.20
2018-11-12T01:24:36.950Z,15.20
2018-11-12T01:27:10.938Z,15.20
2018-11-12T01:29:45.044Z,14.90
2018-11-12T01:32:19.208Z,15.20
2018-11-12T01:34:53.222Z,15.30
2018-11-12T01:37:27.256Z,15.20
2018-11-12T01:40:01.251Z,15.40
2018-11-12T01:42:35.244Z,15.00
2018-11-12T01:45:12.308Z,14.80
2018-11-12T01:47:47.387Z,14.90
2018-11-12T01:50:21.383Z,15.10
2018-11-12T01:52:55.407Z,15.10
2018-11-12T01:55:29.408Z,14.90
2018-11-12T01:58:03.408Z,14.80
2018-11-12T02:00:37.454Z,14.60
2018-11-12T02:03:11.446Z,14.60
2018-11-12T02:05:51.764Z,14.50
2018-11-12T02:08:25.799Z,14.40
2018-11-12T02:10:59.803Z,14.30
2018-11-12T02:13:33.799Z,14.10
2018-11-12T02:16:08.827Z,14.10
2018-11-12T02:18:42.803Z,14.00
2018-11-12T02:21:16.896Z,14.20
2018-11-12T02:23:54.328Z,14.20
2018-11-12T02:26:28.323Z,14.40
2018-11-12T02:29:02.975Z,14.60
2018-11-12T02:31:36.963Z,14.70
2018-11-12T02:34:11.002Z,14.80
2018-11-12T02:36:45.033Z,14.80
2018-11-12T02:39:19.052Z,14.20
2018-11-12T02:41:53.103Z,14.20
2018-11-12T02:44:27.136Z,14.30
2018-11-12T02:47:01.142Z,14.40
2018-11-12T02:49:35.164Z,14.50
2018-11-12T02:52:09.180Z,14.50
2018-11-12T02:54:43.848Z,14.40
2018-11-12T02:57:17.864Z,14.50
2018-11-12T02:59:51.910Z,14.70
2018-11-12T03:02:25.950Z,14.70
2018-11-12T03:04:59.984Z,14.70
2018-11-12T03:07:34.189Z,14.70
2018-11-12T03:10:12.488Z,14.70
2018-11-12T03:12:46.519Z,14.70
2018-11-12T03:15:21.312Z,14.70
2018-11-12T03:17:55.328Z,14.80
2018-11-12T03:20:29.353Z,14.80
2018-11-12T03:23:03.490Z,14.70
2018-11-12T03:25:37.792Z,14.90
2018-11-12T03:28:11.840Z,14.90
2018-11-12T03:30:45.882Z,14.90
2018-11-12T03:33:19.936Z,14.70
2018-11-12T03:35:53.980Z,14.70
2018-11-12T03:38:28.000Z,14.80
2018-11-12T03:41:02.045Z,14.80
2018-11-12T03:43:36.056Z,14.80
2018-11-12T03:46:10.112Z,14.80
2018-11-12T03:48:44.124Z,14.60
2018-11-12T03:51:18.315Z,14.60
2018-11-12T03:53:52.384Z,14.70
2018-11-12T03:56:26.414Z,14.80
2018-11-12T03:59:00.622Z,14.70
2018-11-12T04:01:39.983Z,14.50
2018-11-12T04:04:15.638Z,14.50
2018-11-12T04:06:49.673Z,14.40
2018-11-12T04:09:23.752Z,14.10
2018-11-12T04:11:57.764Z,14.10
2018-11-12T04:14:31.787Z,14.30
2018-11-12T04:17:05.877Z,14.40
2018-11-12T04:19:39.951Z,14.40
2018-11-12T04:22:14.001Z,14.50
2018-11-12T04:24:48.021Z,14.30
2018-11-12T04:27:22.032Z,14.10
2018-11-12T04:29:56.081Z,14.10
2018-11-12T04:32:30.151Z,14.00
2018-11-12T04:35:04.376Z,13.90
2018-11-12T04:37:38.391Z,13.70
2018-11-12T04:40:15.551Z,13.80
2018-11-12T04:42:50.029Z,13.80
2018-11-12T04:45:24.959Z,13.90
2018-11-12T04:47:58.906Z,13.60
2018-11-12T04:50:33.016Z,13.70
2018-11-12T04:53:07.024Z,13.80
2018-11-12T04:55:41.245Z,13.90
2018-11-12T04:58:15.271Z,13.80
2018-11-12T05:00:49.308Z,13.70
2018-11-12T05:03:23.374Z,13.80
2018-11-12T05:05:57.408Z,13.80
2018-11-12T05:08:31.521Z,13.70
2018-11-12T05:11:06.012Z,13.80
2018-11-12T05:13:40.025Z,13.80
2018-11-12T05:16:14.090Z,13.50
2018-11-12T05:18:48.099Z,13.60
2018-11-12T05:21:22.180Z,13.70
2018-11-12T05:23:56.192Z,13.80
2018-11-12T05:26:30.211Z,13.70
2018-11-12T05:29:04.256Z,13.70
2018-11-12T05:31:38.272Z,13.70
2018-11-12T05:34:12.331Z,13.60
2018-11-12T05:36:46.383Z,13.20
2018-11-12T05:39:20.503Z,13.20
2018-11-12T05:41:54.560Z,13.10
2018-11-12T05:44:28.592Z,13.10
2018-11-12T05:47:02.772Z,13.00
2018-11-12T05:49:36.803Z,12.90
2018-11-12T05:52:10.896Z,12.90
2018-11-12T05:54:44.908Z,12.90
2018-11-12T05:57:18.988Z,12.80
2018-11-12T05:59:53.054Z,12.90
2018-11-12T06:02:27.140Z,13.00
2018-11-12T06:05:01.292Z,13.00
2018-11-12T06:07:35.485Z,12.90
2018-11-12T06:10:15.607Z,12.80
2018-11-12T06:12:49.935Z,13.00
2018-11-12T06:15:24.085Z,13.20
2018-11-12T06:17:58.128Z,13.30
2018-11-12T06:20:33.122Z,13.40
2018-11-12T06:23:07.155Z,13.80
2018-11-12T06:25:41.207Z,13.60
2018-11-12T06:28:15.324Z,13.60
2018-11-12T06:30:49.369Z,13.50
2018-11-12T06:33:23.396Z,13.50
2018-11-12T06:35:57.424Z,13.40
2018-11-12T06:38:31.475Z,13.20
2018-11-12T06:41:05.597Z,13.30
2018-11-12T06:43:39.608Z,13.40
2018-11-12T06:46:13.656Z,13.30
2018-11-12T06:48:47.669Z,13.20
2018-11-12T06:51:21.728Z,13.10
2018-11-12T06:53:55.791Z,13.20
2018-11-12T06:56:29.809Z,13.10
2018-11-12T06:59:03.908Z,13.20
2018-11-12T07:01:37.936Z,13.20
2018-11-12T07:04:11.938Z,13.30
2018-11-12T07:06:45.961Z,13.40
2018-11-12T07:09:19.955Z,13.50
2018-11-12T07:11:54.008Z,13.60
2018-11-12T07:14:33.656Z,13.70
2018-11-12T07:17:22.610Z,13.80
2018-11-12T07:20:13.968Z,13.90
2018-11-12T07:22:48.387Z,13.90
2018-11-12T07:25:24.141Z,14.00
2018-11-12T07:27:58.184Z,14.10
2018-11-12T07:30:32.201Z,14.20
2018-11-12T07:33:06.353Z,14.30
2018-11-12T07:35:40.375Z,14.40
2018-11-12T07:38:14.419Z,14.40
2018-11-12T07:40:48.472Z,14.30
2018-11-12T07:43:22.508Z,14.30
2018-11-12T07:45:56.592Z,14.40
2018-11-12T07:48:30.644Z,14.50
2018-11-12T07:51:05.064Z,14.50
2018-11-12T07:53:39.059Z,14.50
2018-11-12T07:56:13.164Z,14.60
2018-11-12T07:58:47.154Z,14.70
2018-11-12T08:01:21.324Z,14.70
2018-11-12T08:03:55.424Z,14.80
2018-11-12T08:06:29.459Z,14.80
2018-11-12T08:09:03.650Z,14.80
2018-11-12T08:11:37.692Z,14.80
2018-11-12T08:14:11.726Z,14.90
2018-11-12T08:16:45.819Z,14.80
2018-11-12T08:19:19.841Z,14.70
2018-11-12T08:21:53.950Z,14.80
2018-11-12T08:24:28.007Z,14.90
2018-11-12T08:27:02.939Z,14.80
2018-11-12T08:29:37.033Z,14.80
2018-11-12T08:32:11.096Z,14.90
2018-11-12T08:34:45.144Z,14.90
2018-11-12T08:37:19.188Z,15.00
2018-11-12T08:39:53.265Z,15.00
2018-11-12T08:42:27.372Z,15.10
2018-11-12T08:45:01.738Z,15.20
2018-11-12T08:47:36.179Z,15.10
2018-11-12T08:50:12.289Z,15.20
2018-11-12T08:52:47.385Z,15.30
2018-11-12T08:55:23.536Z,15.10
2018-11-12T08:57:59.322Z,15.30
2018-11-12T09:00:33.392Z,15.20
2018-11-12T09:03:07.393Z,15.30
2018-11-12T09:05:41.574Z,15.30
2018-11-12T09:08:15.601Z,15.30
2018-11-12T09:10:49.687Z,15.30
2018-11-12T09:13:23.723Z,15.30
2018-11-12T09:15:57.748Z,15.40
2018-11-12T09:18:31.787Z,15.60
2018-11-12T09:21:05.884Z,15.60
2018-11-12T09:23:40.108Z,15.70
2018-11-12T09:26:14.186Z,15.80
2018-11-12T09:28:48.220Z,15.80
2018-11-12T09:31:23.616Z,15.90
2018-11-12T09:36:31.459Z,16.00
2018-11-12T09:39:07.652Z,16.00
2018-11-12T09:41:41.660Z,16.00
2018-11-12T09:44:15.752Z,16.10
2018-11-12T09:46:49.761Z,16.00
2018-11-12T09:49:23.780Z,16.10
2018-11-12T09:51:57.792Z,16.10
2018-11-12T09:54:31.940Z,16.20
2018-11-12T09:57:06.004Z,16.20
2018-11-12T09:59:40.051Z,16.30
2018-11-12T10:02:14.597Z,16.30
2018-11-12T10:04:49.519Z,16.40
2018-11-12T10:07:23.255Z,16.40
2018-11-12T10:09:57.867Z,16.40
2018-11-12T10:12:33.705Z,16.40
2018-11-12T10:15:07.741Z,16.40
2018-11-12T10:17:41.733Z,16.40
2018-11-12T10:20:12.790Z,16.40
2018-11-12T10:22:47.727Z,16.50
2018-11-12T10:25:21.764Z,16.40
2018-11-12T10:27:55.860Z,16.50
2018-11-12T10:30:29.864Z,16.50
2018-11-12T10:33:03.977Z,16.40
2018-11-12T10:35:38.084Z,16.50
2018-11-12T10:38:12.131Z,16.50
2018-11-12T10:40:46.263Z,16.40
2018-11-12T10:43:20.295Z,16.50
2018-11-12T10:45:54.313Z,16.50
2018-11-12T10:48:28.419Z,16.40
2018-11-12T10:51:05.169Z,16.40
2018-11-12T10:53:36.685Z,16.50
2018-11-12T10:56:10.701Z,16.40
2018-11-12T10:58:44.740Z,16.40
2018-11-12T11:02:21.668Z,16.60
2018-11-12T11:04:55.719Z,16.60
2018-11-12T11:07:29.812Z,16.60
2018-11-12T11:10:03.931Z,16.70
2018-11-12T11:12:37.971Z,16.70
2018-11-12T11:15:12.220Z,16.70
2018-11-12T11:17:46.520Z,16.80
2018-11-12T11:20:20.602Z,16.70
2018-11-12T11:22:54.627Z,16.80
2018-11-12T11:25:28.739Z,16.80
2018-11-12T11:28:02.809Z,16.80
2018-11-12T11:30:36.848Z,16.90
2018-11-12T11:33:11.016Z,17.00
2018-11-12T11:35:45.076Z,17.00
2018-11-12T11:38:19.099Z,17.10
2018-11-12T11:40:53.166Z,17.00
2018-11-12T11:43:27.217Z,17.10
2018-11-12T11:46:01.411Z,17.10
2018-11-12T11:48:35.431Z,17.10
2018-11-12T11:51:09.447Z,17.00
2018-11-12T11:53:43.529Z,17.00
2018-11-12T11:56:17.574Z,17.10
2018-11-12T11:58:51.656Z,17.20
2018-11-12T12:01:25.695Z,17.10
2018-11-12T12:04:00.887Z,17.20
2018-11-12T12:06:34.915Z,17.20
2018-11-12T12:09:09.001Z,17.30
2018-11-12T12:11:43.076Z,17.20
2018-11-12T12:14:17.112Z,17.40
2018-11-12T12:16:51.154Z,17.40
2018-11-12T12:19:25.197Z,17.40
2018-11-12T12:21:59.241Z,17.40
2018-11-12T12:24:33.416Z,17.40
2018-11-12T12:27:07.388Z,17.50
2018-11-12T12:29:41.441Z,17.50
2018-11-12T12:32:15.470Z,17.50
2018-11-12T12:34:49.566Z,17.50
2018-11-12T12:37:23.596Z,17.50
2018-11-12T12:39:58.305Z,17.50
2018-11-12T12:42:32.337Z,17.50
2018-11-12T12:45:07.296Z,17.60
2018-11-12T12:47:41.517Z,17.50
2018-11-12T12:50:16.568Z,17.60
2018-11-12T12:52:50.604Z,17.50
2018-11-12T12:55:24.705Z,17.40
2018-11-12T12:57:58.664Z,17.30
2018-11-12T13:00:32.801Z,17.10
2018-11-12T13:03:06.880Z,17.00
2018-11-12T13:05:40.903Z,17.00
2018-11-12T13:08:14.917Z,17.10
2018-11-12T13:10:48.944Z,17.10
2018-11-12T13:13:23.008Z,17.20
2018-11-12T13:15:57.196Z,17.30
2018-11-12T13:18:31.185Z,17.30
2018-11-12T13:21:05.576Z,17.50
2018-11-12T13:23:39.588Z,17.50
2018-11-12T13:26:13.612Z,17.60
2018-11-12T13:28:47.653Z,17.70
2018-11-12T13:31:22.129Z,17.80
2018-11-12T13:33:56.272Z,17.80
2018-11-12T13:36:30.325Z,17.90
2018-11-12T13:39:07.566Z,17.90
2018-11-12T13:41:41.906Z,17.90
2018-11-12T13:44:15.936Z,18.00
2018-11-12T13:46:51.768Z,18.20
2018-11-12T13:49:25.853Z,18.40
2018-11-12T13:51:59.961Z,18.60
2018-11-12T13:54:34.064Z,18.80
2018-11-12T13:57:08.172Z,18.90
2018-11-12T13:59:42.216Z,19.00
2018-11-12T14:02:16.342Z,19.30
2018-11-12T14:04:50.390Z,19.30
2018-11-12T14:07:24.420Z,19.50
2018-11-12T14:09:58.463Z,19.60
2018-11-12T14:12:32.573Z,19.80
2018-11-12T14:15:08.916Z,19.80
2018-11-12T14:17:43.268Z,19.90
2018-11-12T14:20:17.487Z,20.00
2018-11-12T14:22:51.582Z,20.10
2018-11-12T14:25:26.132Z,20.20
2018-11-12T14:28:00.282Z,20.20
2018-11-12T14:30:34.205Z,20.30
2018-11-12T14:33:08.276Z,20.30
2018-11-12T14:35:42.458Z,20.30
2018-11-12T14:38:20.018Z,20.30
2018-11-12T14:40:56.812Z,20.40
2018-11-12T14:43:54.331Z,20.50
2018-11-12T14:51:03.767Z,20.50
2018-11-12T14:53:37.886Z,20.50
2018-11-12T14:56:11.908Z,20.40
2018-11-12T14:58:46.052Z,20.50
2018-11-12T15:01:20.083Z,20.50
2018-11-12T15:03:54.163Z,20.40
2018-11-12T15:06:28.208Z,20.40
2018-11-12T15:09:02.725Z,20.40
2018-11-12T15:11:36.791Z,20.50
2018-11-12T15:14:11.095Z,20.50
2018-11-12T15:16:45.140Z,20.50
2018-11-12T15:19:19.226Z,20.40
2018-11-12T15:21:53.246Z,20.50
2018-11-12T15:24:28.072Z,20.40
2018-11-12T15:27:05.592Z,20.40
2018-11-12T15:29:39.645Z,20.40
2018-11-12T15:32:13.824Z,20.30
2018-11-12T15:34:47.892Z,20.40
2018-11-12T15:37:21.945Z,20.30
2018-11-12T15:39:56.071Z,20.30
2018-11-12T15:42:30.083Z,20.30
2018-11-12T15:45:04.236Z,20.30
2018-11-12T15:47:38.276Z,20.30
2018-11-12T15:50:15.484Z,20.30
2018-11-12T15:52:49.531Z,20.30
2018-11-12T15:55:23.616Z,20.20
2018-11-12T15:57:57.801Z,20.20
2018-11-12T16:00:31.896Z,20.20
2018-11-12T16:03:05.951Z,20.10
2018-11-12T16:05:40.020Z,20.20
2018-11-12T16:08:14.085Z,20.20
2018-11-12T16:10:48.127Z,20.10
2018-11-12T16:13:22.208Z,20.00
2018-11-12T16:15:56.240Z,20.00
2018-11-12T16:18:30.354Z,20.00
2018-11-12T16:21:04.444Z,20.00
2018-11-12T16:23:38.491Z,20.00
2018-11-12T16:26:12.664Z,20.00
2018-11-12T16:28:46.680Z,20.10
2018-11-12T16:31:21.835Z,20.00
2018-11-12T16:33:55.865Z,20.10
2018-11-12T16:36:29.919Z,20.10
2018-11-12T16:39:04.634Z,20.10
2018-11-12T16:41:39.368Z,20.10
2018-11-12T16:44:13.372Z,20.10
2018-11-12T16:46:47.397Z,20.10
2018-11-12T16:49:21.432Z,20.00
2018-11-12T16:51:55.525Z,20.10
2018-11-12T16:54:29.548Z,20.00
2018-11-12T16:57:03.676Z,20.10
2018-11-12T16:59:37.680Z,20.00
2018-11-12T17:02:11.728Z,20.00
2018-11-12T17:04:45.838Z,20.00
2018-11-12T17:07:19.988Z,20.00
2018-11-12T17:09:55.485Z,20.00
2018-11-12T17:12:29.524Z,20.00
2018-11-12T17:15:03.540Z,20.00
2018-11-12T17:17:38.863Z,19.90
2018-11-12T17:20:14.231Z,20.00
2018-11-12T17:22:48.295Z,19.90
2018-11-12T17:25:22.357Z,19.90
2018-11-12T17:27:57.516Z,19.90
2018-11-12T17:30:31.551Z,19.80
2018-11-12T17:33:05.868Z,19.90
2018-11-12T17:35:39.920Z,19.90
2018-11-12T17:38:14.017Z,19.90
2018-11-12T17:40:48.070Z,19.90
2018-11-12T17:43:23.271Z,19.90
2018-11-12T17:45:57.248Z,19.90
2018-11-12T17:48:31.276Z,19.90
2018-11-12T17:51:05.758Z,19.80
2018-11-12T17:53:39.811Z,19.90
2018-11-12T17:56:13.873Z,19.80
2018-11-12T17:58:47.900Z,19.80
2018-11-12T18:01:22.035Z,19.90
2018-11-12T18:03:56.080Z,19.90
2018-11-12T18:06:30.136Z,19.80
2018-11-12T18:09:06.017Z,19.80
2018-11-12T18:11:40.097Z,19.90
2018-11-12T18:14:14.121Z,19.80
2018-11-12T18:16:48.408Z,19.90
2018-11-12T18:19:22.444Z,19.80
2018-11-12T18:21:56.544Z,19.80
2018-11-12T18:24:30.809Z,19.80
2018-11-12T18:27:05.665Z,19.80
2018-11-12T18:29:40.763Z,19.80
2018-11-12T18:32:14.828Z,19.70
2018-11-12T18:34:48.916Z,19.80
2018-11-12T18:37:23.144Z,19.80
2018-11-12T18:39:57.348Z,19.80
2018-11-12T18:42:31.516Z,19.80
2018-11-12T18:45:07.921Z,19.80
2018-11-12T18:47:42.220Z,19.70
2018-11-12T18:50:18.847Z,19.70
2018-11-12T18:52:54.496Z,19.70
2018-11-12T18:55:28.538Z,19.80
2018-11-12T18:58:04.726Z,19.70
2018-11-12T19:00:39.594Z,19.70
2018-11-12T19:03:13.755Z,19.70
2018-11-12T19:05:47.784Z,19.70
2018-11-12T19:08:23.027Z,19.70
2018-11-12T19:10:57.186Z,19.70
2018-11-12T19:13:31.156Z,19.70
2018-11-12T19:16:05.721Z,19.70
2018-11-12T19:18:39.940Z,19.60
2018-11-12T19:21:14.104Z,19.60
2018-11-12T19:23:48.124Z,19.60
2018-11-12T19:26:22.197Z,19.60
2018-11-12T19:28:56.288Z,19.60
2018-11-12T19:31:30.341Z,19.60
2018-11-12T19:34:04.529Z,19.60
2018-11-12T19:36:38.800Z,19.70
2018-11-12T19:39:12.826Z,19.60
2018-11-12T19:41:46.888Z,19.60
2018-11-12T19:44:20.993Z,19.50
2018-11-12T19:46:55.033Z,19.50
2018-11-12T19:49:29.048Z,19.50
2018-11-12T19:52:04.283Z,19.60
2018-11-12T19:54:39.404Z,19.60
2018-11-12T19:57:13.431Z,19.50
2018-11-12T19:59:47.620Z,19.60
2018-11-12T20:02:21.954Z,19.60
2018-11-12T20:04:55.996Z,19.70
2018-11-12T20:07:30.225Z,19.20
2018-11-12T20:10:05.952Z,18.50
2018-11-12T20:12:40.140Z,18.20
2018-11-12T20:15:15.455Z,18.20
2018-11-12T20:17:50.483Z,18.30
2018-11-12T20:20:25.947Z,18.20
2018-11-12T20:23:00.018Z,17.90
2018-11-12T20:25:34.124Z,17.80
2018-11-12T20:28:08.304Z,18.00
2018-11-12T20:30:42.321Z,18.10
2018-11-12T20:33:16.375Z,18.30
2018-11-12T20:35:50.396Z,18.20
2018-11-12T20:38:24.420Z,18.20
2018-11-12T20:40:58.869Z,18.10
2018-11-12T20:43:32.911Z,18.30
2018-11-12T20:46:06.971Z,18.30
2018-11-12T20:48:41.006Z,18.40
2018-11-12T20:51:15.017Z,18.40
2018-11-12T20:53:49.125Z,18.40
2018-11-12T20:56:23.136Z,18.50
2018-11-12T20:58:57.194Z,18.50
2018-11-12T21:01:31.592Z,18.50
2018-11-12T21:04:05.653Z,18.50
2018-11-12T21:06:39.775Z,18.40
2018-11-12T21:09:14.492Z,18.40
2018-11-12T21:11:48.571Z,18.40
2018-11-12T21:14:22.580Z,18.30
2018-11-12T21:16:56.623Z,18.40
2018-11-12T21:19:30.852Z,18.50
2018-11-12T21:22:05.276Z,18.50
2018-11-12T21:24:39.492Z,18.40
2018-11-12T21:27:13.524Z,18.20
2018-11-12T21:29:47.556Z,18.30
2018-11-12T21:32:21.784Z,18.10
2018-11-12T21:34:55.835Z,18.00
2018-11-12T21:37:29.965Z,18.00
2018-11-12T21:40:04.458Z,18.20
2018-11-12T21:42:38.577Z,18.20
2018-11-12T21:45:14.124Z,18.20
2018-11-12T21:47:48.193Z,18.20
2018-11-12T21:50:22.665Z,18.30
2018-11-12T21:52:56.798Z,18.30
2018-11-12T21:55:30.864Z,18.20
2018-11-12T21:58:04.960Z,18.20
2018-11-12T22:00:39.012Z,18.10
2018-11-12T22:03:13.059Z,18.10
2018-11-12T22:05:47.153Z,18.10
2018-11-12T22:08:21.227Z,18.00
2018-11-12T22:10:55.372Z,18.00
2018-11-12T22:13:29.437Z,18.10
2018-11-12T22:16:03.465Z,18.10
2018-11-12T22:18:37.570Z,18.20
2018-11-12T22:21:11.589Z,18.10
2018-11-12T22:23:45.700Z,18.20
2018-11-12T22:26:19.732Z,18.00
2018-11-12T22:28:53.900Z,18.00
2018-11-12T22:31:27.936Z,18.00
2018-11-12T22:34:02.020Z,18.00
2018-11-12T22:36:36.146Z,18.00
2018-11-12T22:39:11.149Z,18.00
2018-11-12T22:41:45.177Z,18.00
2018-11-12T22:44:19.228Z,18.00
2018-11-12T22:46:53.328Z,18.10
2018-11-12T22:49:27.456Z,18.10
2018-11-12T22:52:01.514Z,18.10
2018-11-12T22:54:35.605Z,18.10
2018-11-12T22:57:09.705Z,18.10
2018-11-12T22:59:43.815Z,18.00
2018-11-12T23:02:17.900Z,17.90
2018-11-12T23:04:51.940Z,17.90
2018-11-12T23:07:26.118Z,17.90
2018-11-12T23:10:00.158Z,17.70
2018-11-12T23:12:34.337Z,17.70
2018-11-12T23:15:09.285Z,17.70
2018-11-12T23:17:43.351Z,17.60
2018-11-12T23:20:19.093Z,17.60
2018-11-12T23:22:53.540Z,17.70
2018-11-12T23:25:27.572Z,17.70
2018-11-12T23:28:01.756Z,17.70
2018-11-12T23:30:35.812Z,17.70
2018-11-12T23:33:09.863Z,17.60
2018-11-12T23:35:43.888Z,17.50
2018-11-12T23:38:17.922Z,17.40
2018-11-12T23:40:52.001Z,17.40
2018-11-12T23:43:26.033Z,17.40
2018-11-12T23:46:00.055Z,17.30
2018-11-12T23:48:34.116Z,17.30
2018-11-12T23:51:08.177Z,17.30
2018-11-12T23:53:42.584Z,17.30
2018-11-12T23:56:16.603Z,17.30
2018-11-12T23:58:50.628Z,16.80
